createdAt,value
2019-05-30T00:05:04.785Z,98204.52
2019-05-30T00:10:26.564Z,98214.39
2019-05-30T00:15:48.795Z,98222.57
2019-05-30T00:21:10.512Z,98230.91
2019-05-30T00:26:32.463Z,98234.92
2019-05-30T00:31:55.480Z,98234.85
2019-05-30T00:37:17.092Z,98238.32
2019-05-30T00:42:39.134Z,98235.16
2019-05-30T00:48:00.452Z,98238.16
2019-05-30T00:53:21.969Z,98238.30
2019-05-30T00:58:43.692Z,98238.30
2019-05-30T01:04:05.281Z,98239.10
2019-05-30T01:09:27.139Z,98250.50
2019-05-30T01:14:48.785Z,98264.16
2019-05-30T01:20:10.710Z,98265.42
2019-05-30T01:25:32.371Z,98267.86
2019-05-30T01:31:01.195Z,98273.50
2019-05-30T01:36:18.309Z,98268.63
2019-05-30T01:41:39.651Z,98275.95
2019-05-30T01:47:02.003Z,98264.80
2019-05-30T01:52:23.711Z,98271.05
2019-05-30T01:57:45.412Z,98283.23
2019-05-30T02:03:07.434Z,98297.50
2019-05-30T02:08:29.848Z,98313.16
2019-05-30T02:13:51.430Z,98313.16
2019-05-30T02:19:13.204Z,98315.00
2019-05-30T02:24:35.249Z,98315.00
2019-05-30T02:29:56.933Z,98341.27
2019-05-30T02:35:18.990Z,98346.16
2019-05-30T02:40:41.111Z,98333.66
2019-05-30T02:46:03.532Z,98349.88
2019-05-30T02:51:26.034Z,98351.70
2019-05-30T02:56:47.750Z,98349.88
2019-05-30T03:02:14.644Z,98358.87
2019-05-30T03:07:32.924Z,98378.44
2019-05-30T03:12:54.642Z,98389.62
2019-05-30T03:18:16.279Z,98397.00
2019-05-30T03:23:38.165Z,98390.78
2019-05-30T03:28:59.889Z,98396.92
2019-05-30T03:34:27.786Z,98396.92
2019-05-30T03:39:45.081Z,98401.09
2019-05-30T03:45:10.694Z,98400.45
2019-05-30T03:50:33.331Z,98412.06
2019-05-30T03:56:01.570Z,98412.06
2019-05-30T04:01:28.585Z,98408.63
2019-05-30T04:06:54.586Z,98404.39
2019-05-30T04:12:57.098Z,98403.72
2019-05-30T04:18:19.541Z,98399.27
2019-05-30T04:23:41.524Z,98404.72
2019-05-30T04:29:03.067Z,98412.80
2019-05-30T04:34:24.761Z,98417.91
2019-05-30T04:39:46.998Z,98417.23
2019-05-30T04:45:10.100Z,98415.14
2019-05-30T04:50:33.479Z,98435.07
2019-05-30T04:55:58.729Z,98446.70
2019-05-30T05:01:22.102Z,98451.92
2019-05-30T05:06:43.966Z,98445.89
2019-05-30T05:12:05.624Z,98453.72
2019-05-30T05:17:27.395Z,98457.72
2019-05-30T05:22:48.984Z,98454.05
2019-05-30T05:28:10.590Z,98460.53
2019-05-30T05:33:32.489Z,98453.80
2019-05-30T05:38:54.152Z,98457.13
2019-05-30T05:44:16.183Z,98467.27
2019-05-30T05:49:38.356Z,98472.81
2019-05-30T05:55:00.096Z,98477.13
2019-05-30T06:00:23.313Z,98477.05
2019-05-30T06:05:52.979Z,98478.25
2019-05-30T06:11:11.368Z,98479.34
2019-05-30T06:16:32.963Z,98485.98
2019-05-30T06:21:54.779Z,98485.56
2019-05-30T06:27:17.754Z,98498.00
2019-05-30T06:32:39.681Z,98488.81
2019-05-30T06:38:01.218Z,98490.78
2019-05-30T06:43:24.368Z,98499.41
2019-05-30T06:48:46.557Z,98511.25
2019-05-30T06:54:08.832Z,98518.47
2019-05-30T06:59:30.448Z,98518.36
2019-05-30T07:04:53.013Z,98525.30
2019-05-30T07:10:15.165Z,98531.84
2019-05-30T07:15:36.813Z,98525.11
2019-05-30T07:20:58.247Z,98525.47
2019-05-30T07:26:20.007Z,98516.22
2019-05-30T07:31:41.313Z,98510.38
2019-05-30T07:37:03.473Z,98507.53
2019-05-30T07:42:24.922Z,98510.45
2019-05-30T07:47:46.466Z,98521.48
2019-05-30T07:53:08.312Z,98530.63
2019-05-30T07:58:29.646Z,98523.36
2019-05-30T08:03:51.516Z,98520.95
2019-05-30T08:09:12.977Z,98524.02
2019-05-30T08:14:35.374Z,98517.54
2019-05-30T08:19:56.698Z,98532.16
2019-05-30T08:25:18.446Z,98525.08
2019-05-30T08:30:40.017Z,98526.37
2019-05-30T08:36:05.553Z,98524.81
2019-05-30T08:41:25.824Z,98512.97
2019-05-30T08:46:47.906Z,98509.30
2019-05-30T08:52:09.860Z,98525.27
2019-05-30T08:57:32.336Z,98514.70
2019-05-30T09:02:54.475Z,98517.05
2019-05-30T09:08:16.256Z,98526.02
2019-05-30T09:13:38.899Z,98524.53
2019-05-30T09:19:00.947Z,98522.13
2019-05-30T09:24:22.472Z,98527.30
2019-05-30T09:29:44.715Z,98511.09
2019-05-30T09:35:07.100Z,98503.53
2019-05-30T09:40:30.277Z,98508.73
2019-05-30T09:45:52.009Z,98507.86
2019-05-30T09:51:13.953Z,98503.06
2019-05-30T09:56:35.361Z,98504.52
2019-05-30T10:01:57.030Z,98510.47
2019-05-30T10:07:18.894Z,98493.33
2019-05-30T10:12:40.658Z,98493.14
2019-05-30T10:18:02.191Z,98497.84
2019-05-30T10:23:24.008Z,98498.48
2019-05-30T10:28:46.424Z,98502.52
2019-05-30T10:34:09.532Z,98491.72
2019-05-30T10:39:31.307Z,98498.09
2019-05-30T10:44:54.565Z,98504.66
2019-05-30T10:50:17.108Z,98502.98
2019-05-30T10:55:38.979Z,98497.55
2019-05-30T11:01:00.703Z,98496.99
2019-05-30T11:07:04.850Z,98491.83
2019-05-30T11:12:11.685Z,98500.42
2019-05-30T11:17:33.411Z,98495.30
2019-05-30T11:22:56.372Z,98494.59
2019-05-30T11:28:18.435Z,98489.72
2019-05-30T11:33:40.371Z,98485.70
2019-05-30T11:39:02.051Z,98487.86
2019-05-30T11:44:23.891Z,98480.53
2019-05-30T11:49:45.430Z,98480.99
2019-05-30T11:55:07.352Z,98479.29
2019-05-30T12:00:28.990Z,98467.41
2019-05-30T12:05:51.020Z,98461.92
2019-05-30T12:11:12.969Z,98451.96
2019-05-30T12:16:34.723Z,98446.66
2019-05-30T12:21:57.671Z,98447.36
2019-05-30T12:27:19.191Z,98441.99
2019-05-30T12:32:40.597Z,98442.23
2019-05-30T12:38:05.958Z,98450.11
2019-05-30T12:43:25.972Z,98459.34
2019-05-30T12:48:49.033Z,98464.20
2019-05-30T12:54:10.755Z,98463.23
2019-05-30T12:59:32.294Z,98444.14
2019-05-30T13:04:54.729Z,98443.50
2019-05-30T13:10:18.189Z,98447.02
2019-05-30T13:15:39.790Z,98436.11
2019-05-30T13:21:02.167Z,98429.19
2019-05-30T13:26:24.100Z,98430.09
2019-05-30T13:31:45.853Z,98432.61
2019-05-30T13:37:07.359Z,98430.31
2019-05-30T13:42:28.844Z,98425.29
2019-05-30T13:47:50.668Z,98423.83
2019-05-30T13:53:12.223Z,98439.61
2019-05-30T13:58:33.808Z,98436.75
2019-05-30T14:03:55.517Z,98438.70
2019-05-30T14:09:17.137Z,98439.74
2019-05-30T14:14:39.007Z,98434.94
2019-05-30T14:20:01.106Z,98436.34
2019-05-30T14:25:22.882Z,98451.94
2019-05-30T14:30:44.540Z,98441.92
2019-05-30T14:36:10.209Z,98445.84
2019-05-30T14:41:30.779Z,98439.30
2019-05-30T14:46:52.523Z,98442.09
2019-05-30T14:52:14.270Z,98446.91
2019-05-30T14:57:41.437Z,98446.44
2019-05-30T15:03:03.265Z,98460.50
2019-05-30T15:08:25.112Z,98460.31
2019-05-30T15:13:46.427Z,98448.18
2019-05-30T15:19:08.127Z,98438.20
2019-05-30T15:24:30.067Z,98439.67
2019-05-30T15:29:51.707Z,98434.66
2019-05-30T15:35:15.202Z,98439.50
2019-05-30T15:40:37.029Z,98434.42
2019-05-30T15:45:58.837Z,98426.25
2019-05-30T15:51:21.462Z,98426.11
2019-05-30T15:56:43.530Z,98425.93
2019-05-30T16:02:05.434Z,98432.44
2019-05-30T16:07:27.234Z,98425.67
2019-05-30T16:12:48.959Z,98424.98
2019-05-30T16:18:11.620Z,98426.76
2019-05-30T16:23:33.478Z,98424.31
2019-05-30T16:28:55.476Z,98427.05
2019-05-30T16:34:18.063Z,98433.13
2019-05-30T16:39:42.792Z,98435.12
2019-05-30T16:45:06.119Z,98426.80
2019-05-30T16:50:27.619Z,98436.34
2019-05-30T16:55:49.648Z,98426.00
2019-05-30T17:01:11.269Z,98429.14
2019-05-30T17:06:32.589Z,98423.87
2019-05-30T17:11:54.588Z,98435.73
2019-05-30T17:17:16.347Z,98438.15
2019-05-30T17:22:38.702Z,98434.88
2019-05-30T17:28:00.034Z,98441.89
2019-05-30T17:33:23.423Z,98449.90
2019-05-30T17:38:46.365Z,98444.61
2019-05-30T17:44:08.033Z,98432.35
2019-05-30T17:49:30.032Z,98436.72
2019-05-30T17:54:51.891Z,98435.53
2019-05-30T18:00:14.763Z,98438.47
2019-05-30T18:05:37.329Z,98442.70
2019-05-30T18:10:59.303Z,98445.30
2019-05-30T18:16:21.118Z,98445.08
2019-05-30T18:21:42.960Z,98452.32
2019-05-30T18:27:04.755Z,98464.74
2019-05-30T18:32:26.394Z,98477.20
2019-05-30T18:37:48.237Z,98469.92
2019-05-30T18:43:10.174Z,98478.11
2019-05-30T18:48:31.921Z,98481.31
2019-05-30T18:53:53.631Z,98492.59
2019-05-30T18:59:15.495Z,98499.08
2019-05-30T19:04:37.123Z,98506.39
2019-05-30T19:09:58.953Z,98503.23
2019-05-30T19:15:21.073Z,98516.23
2019-05-30T19:20:42.806Z,98515.94
2019-05-30T19:26:04.758Z,98515.08
2019-05-30T19:31:26.448Z,98524.75
2019-05-30T19:36:48.140Z,98524.59
2019-05-30T19:42:10.194Z,98527.10
2019-05-30T19:47:32.375Z,98535.86
2019-05-30T19:52:53.853Z,98548.89
2019-05-30T19:58:15.518Z,98548.02
2019-05-30T20:03:43.586Z,98543.36
2019-05-30T20:09:00.938Z,98553.73
2019-05-30T20:14:22.324Z,98552.45
2019-05-30T20:19:44.058Z,98555.58
2019-05-30T20:25:05.987Z,98554.92
2019-05-30T20:30:27.808Z,98545.95
2019-05-30T20:35:49.366Z,98536.78
2019-05-30T20:41:11.114Z,98526.98
2019-05-30T20:46:32.742Z,98524.23
2019-05-30T20:51:54.387Z,98522.25
2019-05-30T20:57:15.981Z,98518.33
2019-05-30T21:02:38.756Z,98533.30
2019-05-30T21:08:05.670Z,98530.73
2019-05-30T21:13:29.146Z,98536.02
2019-05-30T21:18:52.253Z,98365.44
2019-05-30T21:24:13.960Z,98546.41
2019-05-30T21:29:36.677Z,98539.02
2019-05-30T21:34:58.549Z,98547.98
2019-05-30T21:40:20.089Z,98535.23
2019-05-30T21:45:42.516Z,98545.59
2019-05-30T21:51:03.982Z,98543.94
2019-05-30T21:56:26.888Z,98553.27
2019-05-30T22:01:54.832Z,98543.36
2019-05-30T22:07:12.473Z,98538.65
2019-05-30T22:12:34.405Z,98532.46
2019-05-30T22:17:56.130Z,98537.75
2019-05-30T22:23:17.783Z,98543.59
2019-05-30T22:28:39.415Z,98543.26
2019-05-30T22:34:01.280Z,98549.91
2019-05-30T22:39:22.586Z,98555.59
2019-05-30T22:44:44.465Z,98564.56
2019-05-30T22:50:06.268Z,98555.19
2019-05-30T22:55:28.268Z,98555.63
2019-05-30T23:00:50.040Z,98572.58
2019-05-30T23:06:11.957Z,98579.47
2019-05-30T23:11:33.552Z,98578.05
2019-05-30T23:16:56.405Z,98586.18
2019-05-30T23:22:17.899Z,98573.88
2019-05-30T23:27:39.500Z,98572.85
2019-05-30T23:33:01.512Z,98563.73
2019-05-30T23:38:23.127Z,98570.53
2019-05-30T23:43:56.611Z,98573.50
2019-05-30T23:49:08.620Z,98560.78
2019-05-30T23:54:29.971Z,98547.35
2019-05-30T23:59:52.729Z,98564.91
